sensor_id;sensor_type;location;lat;lon;timestamp;temperature;humidity
20035;DHT22;10178;48.034;9.800;2023-07-13T00:01:27;22.50;99.90
20035;DHT22;10178;48.034;9.800;2023-07-13T00:03:53;22.60;99.90
20035;DHT22;10178;48.034;9.800;2023-07-13T00:06:18;22.80;99.90
20035;DHT22;10178;48.034;9.800;2023-07-13T00:08:45;22.90;99.90
20035;DHT22;10178;48.034;9.800;2023-07-13T00:11:13;23.00;99.90
20035;DHT22;10178;48.034;9.800;2023-07-13T00:13:40;23.10;99.90
20035;DHT22;10178;48.034;9.800;2023-07-13T00:16:08;23.20;99.90
20035;DHT22;10178;48.034;9.800;2023-07-13T00:18:34;23.20;99.90
20035;DHT22;10178;48.034;9.800;2023-07-13T00:21:00;23.10;99.90
20035;DHT22;10178;48.034;9.800;2023-07-13T00:23:34;23.20;99.90
20035;DHT22;10178;48.034;9.800;2023-07-13T00:26:04;23.20;99.90
20035;DHT22;10178;48.034;9.800;2023-07-13T00:28:30;23.30;99.90
20035;DHT22;10178;48.034;9.800;2023-07-13T00:30:56;23.20;99.90
20035;DHT22;10178;48.034;9.800;2023-07-13T00:33:22;23.10;99.90
20035;DHT22;10178;48.034;9.800;2023-07-13T00:35:48;23.20;99.90
20035;DHT22;10178;48.034;9.800;2023-07-13T00:38:14;21.80;99.90
20035;DHT22;10178;48.034;9.800;2023-07-13T00:40:40;20.70;99.90
20035;DHT22;10178;48.034;9.800;2023-07-13T00:43:15;20.30;99.90
20035;DHT22;10178;48.034;9.800;2023-07-13T00:48:15;21.10;99.90
20035;DHT22;10178;48.034;9.800;2023-07-13T00:50:44;20.70;99.90
20035;DHT22;10178;48.034;9.800;2023-07-13T00:53:10;20.60;99.90
20035;DHT22;10178;48.034;9.800;2023-07-13T00:55:37;20.50;99.90
20035;DHT22;10178;48.034;9.800;2023-07-13T00:58:03;20.80;99.90
20035;DHT22;10178;48.034;9.800;2023-07-13T01:00:30;21.30;99.90
20035;DHT22;10178;48.034;9.800;2023-07-13T01:02:57;21.80;99.90
20035;DHT22;10178;48.034;9.800;2023-07-13T01:05:23;22.20;99.90
20035;DHT22;10178;48.034;9.800;2023-07-13T01:07:51;22.50;99.90
20035;DHT22;10178;48.034;9.800;2023-07-13T01:10:21;22.70;99.90
20035;DHT22;10178;48.034;9.800;2023-07-13T01:12:46;22.80;99.90
20035;DHT22;10178;48.034;9.800;2023-07-13T01:15:45;22.90;99.90
20035;DHT22;10178;48.034;9.800;2023-07-13T01:18:24;22.90;99.90
20035;DHT22;10178;48.034;9.800;2023-07-13T01:20:58;23.00;99.90
20035;DHT22;10178;48.034;9.800;2023-07-13T01:23:25;22.90;99.90
20035;DHT22;10178;48.034;9.800;2023-07-13T01:25:51;22.90;99.90
20035;DHT22;10178;48.034;9.800;2023-07-13T01:28:17;22.90;99.90
20035;DHT22;10178;48.034;9.800;2023-07-13T01:30:44;22.90;99.90
20035;DHT22;10178;48.034;9.800;2023-07-13T01:33:13;22.90;99.90
20035;DHT22;10178;48.034;9.800;2023-07-13T01:35:39;23.00;99.90
20035;DHT22;10178;48.034;9.800;2023-07-13T01:38:05;23.00;99.90
20035;DHT22;10178;48.034;9.800;2023-07-13T01:40:31;23.00;99.90
20035;DHT22;10178;48.034;9.800;2023-07-13T01:42:58;23.10;99.90
20035;DHT22;10178;48.034;9.800;2023-07-13T01:45:23;23.00;99.90
20035;DHT22;10178;48.034;9.800;2023-07-13T01:47:49;23.10;99.90
20035;DHT22;10178;48.034;9.800;2023-07-13T01:50:15;23.00;99.90
20035;DHT22;10178;48.034;9.800;2023-07-13T01:52:41;23.00;99.90
20035;DHT22;10178;48.034;9.800;2023-07-13T01:55:07;23.10;99.90
20035;DHT22;10178;48.034;9.800;2023-07-13T01:57:32;23.00;99.90
20035;DHT22;10178;48.034;9.800;2023-07-13T01:59:58;23.00;99.90
20035;DHT22;10178;48.034;9.800;2023-07-13T02:02:24;23.00;99.90
20035;DHT22;10178;48.034;9.800;2023-07-13T02:04:50;23.00;99.90
20035;DHT22;10178;48.034;9.800;2023-07-13T02:07:15;23.00;99.90
20035;DHT22;10178;48.034;9.800;2023-07-13T02:09:41;22.40;99.90
20035;DHT22;10178;48.034;9.800;2023-07-13T02:12:08;22.60;99.90
20035;DHT22;10178;48.034;9.800;2023-07-13T02:14:33;22.70;99.90
20035;DHT22;10178;48.034;9.800;2023-07-13T02:16:59;22.80;99.90
20035;DHT22;10178;48.034;9.800;2023-07-13T02:19:25;22.80;99.90
20035;DHT22;10178;48.034;9.800;2023-07-13T02:21:50;21.90;99.90
20035;DHT22;10178;48.034;9.800;2023-07-13T02:24:16;21.80;99.90
20035;DHT22;10178;48.034;9.800;2023-07-13T02:26:43;22.10;99.90
20035;DHT22;10178;48.034;9.800;2023-07-13T02:29:09;21.90;99.90
20035;DHT22;10178;48.034;9.800;2023-07-13T02:31:35;21.90;99.90
20035;DHT22;10178;48.034;9.800;2023-07-13T02:34:02;22.20;99.90
20035;DHT22;10178;48.034;9.800;2023-07-13T02:36:28;21.80;99.90
20035;DHT22;10178;48.034;9.800;2023-07-13T02:38:54;22.10;99.90
20035;DHT22;10178;48.034;9.800;2023-07-13T02:41:19;22.30;99.90
20035;DHT22;10178;48.034;9.800;2023-07-13T02:43:45;22.30;99.90
20035;DHT22;10178;48.034;9.800;2023-07-13T02:46:10;22.50;99.90
20035;DHT22;10178;48.034;9.800;2023-07-13T02:48:38;22.50;99.90
20035;DHT22;10178;48.034;9.800;2023-07-13T02:51:04;22.60;99.90
20035;DHT22;10178;48.034;9.800;2023-07-13T02:53:30;22.60;99.90
20035;DHT22;10178;48.034;9.800;2023-07-13T02:55:56;22.70;99.90
20035;DHT22;10178;48.034;9.800;2023-07-13T02:58:22;22.70;99.90
20035;DHT22;10178;48.034;9.800;2023-07-13T03:00:48;22.70;99.90
20035;DHT22;10178;48.034;9.800;2023-07-13T03:03:16;22.70;99.90
20035;DHT22;10178;48.034;9.800;2023-07-13T03:05:43;22.70;99.90
20035;DHT22;10178;48.034;9.800;2023-07-13T03:08:10;22.70;99.90
20035;DHT22;10178;48.034;9.800;2023-07-13T03:10:36;22.70;99.90
20035;DHT22;10178;48.034;9.800;2023-07-13T03:13:03;22.60;99.90
20035;DHT22;10178;48.034;9.800;2023-07-13T03:15:28;22.60;99.90
20035;DHT22;10178;48.034;9.800;2023-07-13T03:17:54;22.60;99.90
20035;DHT22;10178;48.034;9.800;2023-07-13T03:20:19;22.60;99.90
20035;DHT22;10178;48.034;9.800;2023-07-13T03:22:45;22.60;99.90
20035;DHT22;10178;48.034;9.800;2023-07-13T03:25:11;22.60;99.90
20035;DHT22;10178;48.034;9.800;2023-07-13T03:27:37;22.60;99.90
20035;DHT22;10178;48.034;9.800;2023-07-13T03:30:04;22.60;99.90
20035;DHT22;10178;48.034;9.800;2023-07-13T03:32:30;22.60;99.90
20035;DHT22;10178;48.034;9.800;2023-07-13T03:34:56;22.60;99.90
20035;DHT22;10178;48.034;9.800;2023-07-13T03:37:21;22.50;99.90
20035;DHT22;10178;48.034;9.800;2023-07-13T03:39:47;22.50;99.90
20035;DHT22;10178;48.034;9.800;2023-07-13T03:42:12;22.50;99.90
20035;DHT22;10178;48.034;9.800;2023-07-13T03:44:39;22.50;99.90
20035;DHT22;10178;48.034;9.800;2023-07-13T03:47:05;22.50;99.90
20035;DHT22;10178;48.034;9.800;2023-07-13T03:49:31;22.30;99.90
20035;DHT22;10178;48.034;9.800;2023-07-13T03:51:57;22.10;99.90
20035;DHT22;10178;48.034;9.800;2023-07-13T03:54:23;22.00;99.90
20035;DHT22;10178;48.034;9.800;2023-07-13T03:56:48;22.00;99.90
20035;DHT22;10178;48.034;9.800;2023-07-13T03:59:14;22.00;99.90
20035;DHT22;10178;48.034;9.800;2023-07-13T04:01:39;22.00;99.90
20035;DHT22;10178;48.034;9.800;2023-07-13T04:04:05;22.00;99.90
20035;DHT22;10178;48.034;9.800;2023-07-13T04:06:32;22.10;99.90
20035;DHT22;10178;48.034;9.800;2023-07-13T04:08:59;22.10;99.90
20035;DHT22;10178;48.034;9.800;2023-07-13T04:11:28;22.10;99.90
20035;DHT22;10178;48.034;9.800;2023-07-13T04:13:55;22.10;99.90
20035;DHT22;10178;48.034;9.800;2023-07-13T04:16:21;22.20;99.90
20035;DHT22;10178;48.034;9.800;2023-07-13T04:18:48;22.20;99.90
20035;DHT22;10178;48.034;9.800;2023-07-13T04:21:15;22.20;99.90
20035;DHT22;10178;48.034;9.800;2023-07-13T04:23:40;22.20;99.90
20035;DHT22;10178;48.034;9.800;2023-07-13T04:26:07;22.20;99.90
20035;DHT22;10178;48.034;9.800;2023-07-13T04:28:33;22.20;99.90
20035;DHT22;10178;48.034;9.800;2023-07-13T04:30:59;22.20;99.90
20035;DHT22;10178;48.034;9.800;2023-07-13T04:33:25;22.20;99.90
20035;DHT22;10178;48.034;9.800;2023-07-13T04:35:52;22.10;99.90
20035;DHT22;10178;48.034;9.800;2023-07-13T04:38:27;22.00;99.90
20035;DHT22;10178;48.034;9.800;2023-07-13T04:41:01;21.80;99.90
20035;DHT22;10178;48.034;9.800;2023-07-13T04:43:28;22.00;99.90
20035;DHT22;10178;48.034;9.800;2023-07-13T04:45:54;22.00;99.90
20035;DHT22;10178;48.034;9.800;2023-07-13T04:48:21;22.00;99.90
20035;DHT22;10178;48.034;9.800;2023-07-13T04:50:47;22.10;99.90
20035;DHT22;10178;48.034;9.800;2023-07-13T04:53:14;22.10;99.90
20035;DHT22;10178;48.034;9.800;2023-07-13T04:55:40;22.10;99.90
20035;DHT22;10178;48.034;9.800;2023-07-13T04:58:06;22.10;99.90
20035;DHT22;10178;48.034;9.800;2023-07-13T05:00:32;22.10;99.90
20035;DHT22;10178;48.034;9.800;2023-07-13T05:02:58;22.10;99.90
20035;DHT22;10178;48.034;9.800;2023-07-13T05:05:25;22.10;99.90
20035;DHT22;10178;48.034;9.800;2023-07-13T05:07:51;22.10;99.90
20035;DHT22;10178;48.034;9.800;2023-07-13T05:10:17;22.10;99.90
20035;DHT22;10178;48.034;9.800;2023-07-13T05:12:43;22.10;99.90
20035;DHT22;10178;48.034;9.800;2023-07-13T05:15:09;22.10;99.90
20035;DHT22;10178;48.034;9.800;2023-07-13T05:17:35;21.90;99.90
20035;DHT22;10178;48.034;9.800;2023-07-13T05:20:00;21.60;99.90
20035;DHT22;10178;48.034;9.800;2023-07-13T05:22:26;21.80;99.90
20035;DHT22;10178;48.034;9.800;2023-07-13T05:24:52;21.80;99.90
20035;DHT22;10178;48.034;9.800;2023-07-13T05:27:17;21.90;99.90
20035;DHT22;10178;48.034;9.800;2023-07-13T05:29:43;22.00;99.90
20035;DHT22;10178;48.034;9.800;2023-07-13T05:32:09;22.00;99.90
20035;DHT22;10178;48.034;9.800;2023-07-13T05:34:35;21.70;99.90
20035;DHT22;10178;48.034;9.800;2023-07-13T05:37:01;21.70;99.90
20035;DHT22;10178;48.034;9.800;2023-07-13T05:39:26;21.80;99.90
20035;DHT22;10178;48.034;9.800;2023-07-13T05:41:53;21.70;99.90
20035;DHT22;10178;48.034;9.800;2023-07-13T05:44:18;21.80;99.90
20035;DHT22;10178;48.034;9.800;2023-07-13T05:46:44;21.80;99.90
20035;DHT22;10178;48.034;9.800;2023-07-13T05:49:10;21.90;99.90
20035;DHT22;10178;48.034;9.800;2023-07-13T05:51:36;22.00;99.90
20035;DHT22;10178;48.034;9.800;2023-07-13T05:54:02;21.40;99.90
20035;DHT22;10178;48.034;9.800;2023-07-13T05:56:28;20.50;99.90
20035;DHT22;10178;48.034;9.800;2023-07-13T05:58:53;20.60;99.90
20035;DHT22;10178;48.034;9.800;2023-07-13T06:01:19;21.00;99.90
20035;DHT22;10178;48.034;9.800;2023-07-13T06:03:46;21.40;99.90
20035;DHT22;10178;48.034;9.800;2023-07-13T06:06:12;21.70;99.90
20035;DHT22;10178;48.034;9.800;2023-07-13T06:08:38;21.80;99.90
20035;DHT22;10178;48.034;9.800;2023-07-13T06:11:17;21.90;99.90
20035;DHT22;10178;48.034;9.800;2023-07-13T06:13:43;22.00;99.90
20035;DHT22;10178;48.034;9.800;2023-07-13T06:16:09;22.00;99.90
20035;DHT22;10178;48.034;9.800;2023-07-13T06:18:36;22.00;99.90
20035;DHT22;10178;48.034;9.800;2023-07-13T06:21:12;22.10;99.90
20035;DHT22;10178;48.034;9.800;2023-07-13T06:23:38;22.10;99.90
20035;DHT22;10178;48.034;9.800;2023-07-13T06:26:05;22.10;99.90
20035;DHT22;10178;48.034;9.800;2023-07-13T06:28:31;22.10;99.90
20035;DHT22;10178;48.034;9.800;2023-07-13T06:30:58;22.10;99.90
20035;DHT22;10178;48.034;9.800;2023-07-13T06:33:24;22.20;99.90
20035;DHT22;10178;48.034;9.800;2023-07-13T06:35:50;22.20;99.90
20035;DHT22;10178;48.034;9.800;2023-07-13T06:38:15;22.20;99.90
20035;DHT22;10178;48.034;9.800;2023-07-13T06:40:41;22.20;99.90
20035;DHT22;10178;48.034;9.800;2023-07-13T06:43:07;22.20;99.90
20035;DHT22;10178;48.034;9.800;2023-07-13T06:45:45;22.20;99.90
20035;DHT22;10178;48.034;9.800;2023-07-13T06:48:13;22.20;99.90
20035;DHT22;10178;48.034;9.800;2023-07-13T06:50:38;22.20;99.90
20035;DHT22;10178;48.034;9.800;2023-07-13T06:53:04;22.20;99.90
20035;DHT22;10178;48.034;9.800;2023-07-13T06:55:29;22.30;99.90
20035;DHT22;10178;48.034;9.800;2023-07-13T06:57:55;22.30;99.90
20035;DHT22;10178;48.034;9.800;2023-07-13T07:00:21;22.30;99.90
20035;DHT22;10178;48.034;9.800;2023-07-13T07:02:46;22.30;99.90
20035;DHT22;10178;48.034;9.800;2023-07-13T07:05:12;22.30;99.90
20035;DHT22;10178;48.034;9.800;2023-07-13T07:07:37;22.30;99.90
20035;DHT22;10178;48.034;9.800;2023-07-13T07:10:03;22.30;99.90
20035;DHT22;10178;48.034;9.800;2023-07-13T07:12:29;22.30;99.90
20035;DHT22;10178;48.034;9.800;2023-07-13T07:14:55;22.30;99.90
20035;DHT22;10178;48.034;9.800;2023-07-13T07:17:21;22.30;99.90
20035;DHT22;10178;48.034;9.800;2023-07-13T07:19:47;22.30;99.90
20035;DHT22;10178;48.034;9.800;2023-07-13T07:22:12;22.40;99.90
20035;DHT22;10178;48.034;9.800;2023-07-13T07:24:38;22.30;99.90
20035;DHT22;10178;48.034;9.800;2023-07-13T07:27:04;22.40;99.90
20035;DHT22;10178;48.034;9.800;2023-07-13T07:29:29;22.40;99.90
20035;DHT22;10178;48.034;9.800;2023-07-13T07:31:55;22.40;99.90
20035;DHT22;10178;48.034;9.800;2023-07-13T07:34:21;22.40;99.90
20035;DHT22;10178;48.034;9.800;2023-07-13T07:36:46;22.40;99.90
20035;DHT22;10178;48.034;9.800;2023-07-13T07:39:12;22.40;99.90
20035;DHT22;10178;48.034;9.800;2023-07-13T07:41:38;22.40;99.90
20035;DHT22;10178;48.034;9.800;2023-07-13T07:44:04;22.40;99.90
20035;DHT22;10178;48.034;9.800;2023-07-13T07:46:30;22.40;99.90
20035;DHT22;10178;48.034;9.800;2023-07-13T07:48:56;22.40;99.90
20035;DHT22;10178;48.034;9.800;2023-07-13T07:51:22;22.40;99.90
20035;DHT22;10178;48.034;9.800;2023-07-13T07:53:47;22.50;99.90
20035;DHT22;10178;48.034;9.800;2023-07-13T07:56:13;22.50;99.90
20035;DHT22;10178;48.034;9.800;2023-07-13T07:58:41;22.60;99.90
20035;DHT22;10178;48.034;9.800;2023-07-13T08:01:07;22.60;99.90
20035;DHT22;10178;48.034;9.800;2023-07-13T08:03:33;22.60;99.90
20035;DHT22;10178;48.034;9.800;2023-07-13T08:05:59;22.70;99.90
20035;DHT22;10178;48.034;9.800;2023-07-13T08:08:25;21.90;99.90
20035;DHT22;10178;48.034;9.800;2023-07-13T08:10:51;20.90;99.90
20035;DHT22;10178;48.034;9.800;2023-07-13T08:13:17;20.50;99.90
20035;DHT22;10178;48.034;9.800;2023-07-13T08:15:43;21.00;99.90
20035;DHT22;10178;48.034;9.800;2023-07-13T08:18:08;21.50;99.90
20035;DHT22;10178;48.034;9.800;2023-07-13T08:20:37;21.80;99.90
20035;DHT22;10178;48.034;9.800;2023-07-13T08:23:03;21.50;99.90
20035;DHT22;10178;48.034;9.800;2023-07-13T08:25:29;21.40;99.90
20035;DHT22;10178;48.034;9.800;2023-07-13T08:27:55;21.50;99.90
20035;DHT22;10178;48.034;9.800;2023-07-13T08:30:20;21.70;99.90
20035;DHT22;10178;48.034;9.800;2023-07-13T08:32:46;21.50;99.90
20035;DHT22;10178;48.034;9.800;2023-07-13T08:35:12;21.10;99.90
20035;DHT22;10178;48.034;9.800;2023-07-13T08:37:40;21.30;99.90
20035;DHT22;10178;48.034;9.800;2023-07-13T08:40:07;21.70;99.90
20035;DHT22;10178;48.034;9.800;2023-07-13T08:42:47;21.90;99.90
20035;DHT22;10178;48.034;9.800;2023-07-13T08:45:21;21.90;99.90
20035;DHT22;10178;48.034;9.800;2023-07-13T08:48:00;21.30;99.90
20035;DHT22;10178;48.034;9.800;2023-07-13T08:50:37;21.00;99.90
20035;DHT22;10178;48.034;9.800;2023-07-13T08:53:04;20.80;99.90
20035;DHT22;10178;48.034;9.800;2023-07-13T08:55:33;21.20;99.90
20035;DHT22;10178;48.034;9.800;2023-07-13T08:58:06;20.80;99.90
20035;DHT22;10178;48.034;9.800;2023-07-13T09:03:16;20.80;99.90
20035;DHT22;10178;48.034;9.800;2023-07-13T09:05:52;21.00;99.90
20035;DHT22;10178;48.034;9.800;2023-07-13T09:16:21;22.50;99.90
20035;DHT22;10178;48.034;9.800;2023-07-13T09:18:49;22.50;99.90
20035;DHT22;10178;48.034;9.800;2023-07-13T09:21:20;22.20;99.90
20035;DHT22;10178;48.034;9.800;2023-07-13T09:23:48;21.90;99.90
20035;DHT22;10178;48.034;9.800;2023-07-13T09:26:21;21.80;99.90
20035;DHT22;10178;48.034;9.800;2023-07-13T09:28:57;21.80;99.90
20035;DHT22;10178;48.034;9.800;2023-07-13T09:31:37;21.70;99.90
20035;DHT22;10178;48.034;9.800;2023-07-13T09:34:11;21.90;99.90
20035;DHT22;10178;48.034;9.800;2023-07-13T09:36:38;22.10;99.90
20035;DHT22;10178;48.034;9.800;2023-07-13T09:41:49;22.10;99.90
20035;DHT22;10178;48.034;9.800;2023-07-13T09:44:18;22.40;99.90
20035;DHT22;10178;48.034;9.800;2023-07-13T09:46:55;22.60;99.90
20035;DHT22;10178;48.034;9.800;2023-07-13T09:49:34;22.70;99.90
20035;DHT22;10178;48.034;9.800;2023-07-13T09:52:11;22.80;99.90
20035;DHT22;10178;48.034;9.800;2023-07-13T09:54:37;22.80;99.90
20035;DHT22;10178;48.034;9.800;2023-07-13T09:57:13;22.90;99.90
20035;DHT22;10178;48.034;9.800;2023-07-13T09:59:47;22.90;99.90
20035;DHT22;10178;48.034;9.800;2023-07-13T10:02:30;23.00;99.90
20035;DHT22;10178;48.034;9.800;2023-07-13T10:05:02;22.90;99.90
20035;DHT22;10178;48.034;9.800;2023-07-13T10:07:30;23.00;99.90
20035;DHT22;10178;48.034;9.800;2023-07-13T10:09:57;22.80;99.90
20035;DHT22;10178;48.034;9.800;2023-07-13T10:12:24;22.70;99.90
20035;DHT22;10178;48.034;9.800;2023-07-13T10:14:56;22.20;99.90
20035;DHT22;10178;48.034;9.800;2023-07-13T10:17:27;21.60;99.90
20035;DHT22;10178;48.034;9.800;2023-07-13T10:20:00;21.90;99.90
20035;DHT22;10178;48.034;9.800;2023-07-13T10:22:49;21.30;99.90
20035;DHT22;10178;48.034;9.800;2023-07-13T10:25:19;20.90;99.90
20035;DHT22;10178;48.034;9.800;2023-07-13T10:27:46;20.60;99.90
20035;DHT22;10178;48.034;9.800;2023-07-13T10:30:20;20.70;99.90
20035;DHT22;10178;48.034;9.800;2023-07-13T10:32:48;20.80;99.90
20035;DHT22;10178;48.034;9.800;2023-07-13T10:35:17;21.30;99.90
20035;DHT22;10178;48.034;9.800;2023-07-13T10:37:54;21.70;99.90
20035;DHT22;10178;48.034;9.800;2023-07-13T10:40:33;21.90;99.90
20035;DHT22;10178;48.034;9.800;2023-07-13T10:43:04;21.70;99.90
20035;DHT22;10178;48.034;9.800;2023-07-13T10:45:34;22.00;99.90
20035;DHT22;10178;48.034;9.800;2023-07-13T10:48:00;21.80;99.90
20035;DHT22;10178;48.034;9.800;2023-07-13T10:50:28;21.20;99.90
20035;DHT22;10178;48.034;9.800;2023-07-13T10:53:17;21.10;99.90
20035;DHT22;10178;48.034;9.800;2023-07-13T10:58:24;21.30;99.90
20035;DHT22;10178;48.034;9.800;2023-07-13T11:01:07;21.20;99.90
20035;DHT22;10178;48.034;9.800;2023-07-13T11:04:01;21.60;99.90
20035;DHT22;10178;48.034;9.800;2023-07-13T11:09:30;22.30;99.90
20035;DHT22;10178;48.034;9.800;2023-07-13T11:15:04;22.50;99.90
20035;DHT22;10178;48.034;9.800;2023-07-13T11:22:48;21.60;99.90
20035;DHT22;10178;48.034;9.800;2023-07-13T11:25:25;21.50;99.90
20035;DHT22;10178;48.034;9.800;2023-07-13T11:30:37;22.30;99.90
20035;DHT22;10178;48.034;9.800;2023-07-13T11:33:24;22.20;99.90
20035;DHT22;10178;48.034;9.800;2023-07-13T11:36:30;22.40;99.90
20035;DHT22;10178;48.034;9.800;2023-07-13T11:38:58;22.20;99.90
20035;DHT22;10178;48.034;9.800;2023-07-13T11:41:30;22.10;99.90
20035;DHT22;10178;48.034;9.800;2023-07-13T11:44:16;22.40;99.90
20035;DHT22;10178;48.034;9.800;2023-07-13T11:46:47;22.30;99.90
20035;DHT22;10178;48.034;9.800;2023-07-13T11:49:20;22.00;99.90
20035;DHT22;10178;48.034;9.800;2023-07-13T11:51:46;22.20;99.90
20035;DHT22;10178;48.034;9.800;2023-07-13T11:57:28;22.20;99.90
20035;DHT22;10178;48.034;9.800;2023-07-13T11:59:57;22.50;99.90
20035;DHT22;10178;48.034;9.800;2023-07-13T12:02:32;21.90;99.90
20035;DHT22;10178;48.034;9.800;2023-07-13T12:05:00;22.10;99.90
20035;DHT22;10178;48.034;9.800;2023-07-13T12:07:29;22.50;99.90
20035;DHT22;10178;48.034;9.800;2023-07-13T12:10:01;22.90;99.90
20035;DHT22;10178;48.034;9.800;2023-07-13T12:12:29;23.10;99.90
20035;DHT22;10178;48.034;9.800;2023-07-13T12:14:56;23.30;99.90
20035;DHT22;10178;48.034;9.800;2023-07-13T12:17:24;23.50;99.90
20035;DHT22;10178;48.034;9.800;2023-07-13T12:19:51;23.40;99.90
20035;DHT22;10178;48.034;9.800;2023-07-13T12:22:19;23.60;99.90
20035;DHT22;10178;48.034;9.800;2023-07-13T12:24:46;23.30;99.90
20035;DHT22;10178;48.034;9.800;2023-07-13T12:27:27;23.40;99.90
20035;DHT22;10178;48.034;9.800;2023-07-13T12:30:00;23.60;99.90
20035;DHT22;10178;48.034;9.800;2023-07-13T12:32:27;23.70;99.90
20035;DHT22;10178;48.034;9.800;2023-07-13T12:34:55;23.80;99.90
20035;DHT22;10178;48.034;9.800;2023-07-13T12:37:22;23.70;99.90
20035;DHT22;10178;48.034;9.800;2023-07-13T12:39:48;23.80;99.90
20035;DHT22;10178;48.034;9.800;2023-07-13T12:42:24;23.80;99.90
20035;DHT22;10178;48.034;9.800;2023-07-13T12:45:02;24.00;99.90
20035;DHT22;10178;48.034;9.800;2023-07-13T12:47:29;24.00;99.90
20035;DHT22;10178;48.034;9.800;2023-07-13T12:49:59;24.00;99.90
20035;DHT22;10178;48.034;9.800;2023-07-13T12:52:30;24.00;99.90
20035;DHT22;10178;48.034;9.800;2023-07-13T12:55:05;24.10;99.90
20035;DHT22;10178;48.034;9.800;2023-07-13T12:57:31;24.10;99.90
20035;DHT22;10178;48.034;9.800;2023-07-13T12:59:57;24.10;99.90
20035;DHT22;10178;48.034;9.800;2023-07-13T13:04:52;23.90;99.90
20035;DHT22;10178;48.034;9.800;2023-07-13T13:07:20;23.90;99.90
20035;DHT22;10178;48.034;9.800;2023-07-13T13:09:46;23.90;99.90
20035;DHT22;10178;48.034;9.800;2023-07-13T13:12:12;24.00;99.90
20035;DHT22;10178;48.034;9.800;2023-07-13T13:14:38;24.00;99.90
20035;DHT22;10178;48.034;9.800;2023-07-13T13:17:18;24.00;99.90
20035;DHT22;10178;48.034;9.800;2023-07-13T13:19:45;24.00;99.90
20035;DHT22;10178;48.034;9.800;2023-07-13T13:22:11;24.10;99.90
20035;DHT22;10178;48.034;9.800;2023-07-13T13:24:36;23.60;99.90
20035;DHT22;10178;48.034;9.800;2023-07-13T13:27:02;23.40;99.90
20035;DHT22;10178;48.034;9.800;2023-07-13T13:29:28;22.80;99.90
20035;DHT22;10178;48.034;9.800;2023-07-13T13:31:55;23.00;99.90
20035;DHT22;10178;48.034;9.800;2023-07-13T13:34:22;23.00;99.90
20035;DHT22;10178;48.034;9.800;2023-07-13T13:36:51;22.90;99.90
20035;DHT22;10178;48.034;9.800;2023-07-13T13:39:29;23.10;99.90
20035;DHT22;10178;48.034;9.800;2023-07-13T13:41:55;23.20;99.90
20035;DHT22;10178;48.034;9.800;2023-07-13T13:44:22;23.30;99.90
20035;DHT22;10178;48.034;9.800;2023-07-13T13:46:50;23.20;99.90
20035;DHT22;10178;48.034;9.800;2023-07-13T13:49:24;23.30;99.90
20035;DHT22;10178;48.034;9.800;2023-07-13T13:51:51;23.50;99.90
20035;DHT22;10178;48.034;9.800;2023-07-13T13:54:18;23.50;99.90
20035;DHT22;10178;48.034;9.800;2023-07-13T13:56:46;24.00;99.90
20035;DHT22;10178;48.034;9.800;2023-07-13T13:59:13;24.90;99.90
20035;DHT22;10178;48.034;9.800;2023-07-13T14:01:39;25.50;99.90
20035;DHT22;10178;48.034;9.800;2023-07-13T14:04:06;25.90;99.90
20035;DHT22;10178;48.034;9.800;2023-07-13T14:06:35;26.30;99.90
20035;DHT22;10178;48.034;9.800;2023-07-13T14:09:01;26.50;99.90
20035;DHT22;10178;48.034;9.800;2023-07-13T14:11:29;26.50;99.90
20035;DHT22;10178;48.034;9.800;2023-07-13T14:13:58;26.60;99.90
20035;DHT22;10178;48.034;9.800;2023-07-13T14:16:28;26.80;99.90
20035;DHT22;10178;48.034;9.800;2023-07-13T14:18:55;26.40;99.90
20035;DHT22;10178;48.034;9.800;2023-07-13T14:21:23;26.60;99.90
20035;DHT22;10178;48.034;9.800;2023-07-13T14:23:50;26.40;99.90
20035;DHT22;10178;48.034;9.800;2023-07-13T14:26:21;26.70;99.90
20035;DHT22;10178;48.034;9.800;2023-07-13T14:28:51;26.90;99.90
20035;DHT22;10178;48.034;9.800;2023-07-13T14:31:17;26.90;99.90
20035;DHT22;10178;48.034;9.800;2023-07-13T14:33:52;27.00;99.90
20035;DHT22;10178;48.034;9.800;2023-07-13T14:36:30;26.50;99.90
20035;DHT22;10178;48.034;9.800;2023-07-13T14:38:58;26.40;99.90
20035;DHT22;10178;48.034;9.800;2023-07-13T14:41:24;26.30;99.90
20035;DHT22;10178;48.034;9.800;2023-07-13T14:43:50;26.30;99.90
20035;DHT22;10178;48.034;9.800;2023-07-13T14:46:29;26.60;99.90
20035;DHT22;10178;48.034;9.800;2023-07-13T14:49:24;26.40;99.90
20035;DHT22;10178;48.034;9.800;2023-07-13T14:51:50;25.20;99.90
20035;DHT22;10178;48.034;9.800;2023-07-13T14:54:16;25.40;99.90
20035;DHT22;10178;48.034;9.800;2023-07-13T14:56:41;25.80;99.90
20035;DHT22;10178;48.034;9.800;2023-07-13T14:59:07;26.10;99.90
20035;DHT22;10178;48.034;9.800;2023-07-13T15:01:36;26.40;99.90
20035;DHT22;10178;48.034;9.800;2023-07-13T15:04:03;26.40;99.90
20035;DHT22;10178;48.034;9.800;2023-07-13T15:06:29;25.90;99.90
20035;DHT22;10178;48.034;9.800;2023-07-13T15:08:57;25.80;99.90
20035;DHT22;10178;48.034;9.800;2023-07-13T15:11:22;25.70;99.90
20035;DHT22;10178;48.034;9.800;2023-07-13T15:13:48;25.60;99.90
20035;DHT22;10178;48.034;9.800;2023-07-13T15:16:21;25.50;99.90
20035;DHT22;10178;48.034;9.800;2023-07-13T15:18:49;25.40;99.90
20035;DHT22;10178;48.034;9.800;2023-07-13T15:21:20;25.40;99.90
20035;DHT22;10178;48.034;9.800;2023-07-13T15:23:46;25.30;99.90
20035;DHT22;10178;48.034;9.800;2023-07-13T15:26:13;25.40;99.90
20035;DHT22;10178;48.034;9.800;2023-07-13T15:28:43;25.30;99.90
20035;DHT22;10178;48.034;9.800;2023-07-13T15:31:25;25.30;99.90
20035;DHT22;10178;48.034;9.800;2023-07-13T15:33:56;25.30;99.90
20035;DHT22;10178;48.034;9.800;2023-07-13T15:36:23;25.30;99.90
20035;DHT22;10178;48.034;9.800;2023-07-13T15:38:54;25.20;99.90
20035;DHT22;10178;48.034;9.800;2023-07-13T15:41:27;25.10;99.90
20035;DHT22;10178;48.034;9.800;2023-07-13T15:43:56;24.80;99.90
20035;DHT22;10178;48.034;9.800;2023-07-13T15:46:24;24.60;99.90
20035;DHT22;10178;48.034;9.800;2023-07-13T15:48:51;24.40;99.90
20035;DHT22;10178;48.034;9.800;2023-07-13T15:51:24;24.50;99.90
20035;DHT22;10178;48.034;9.800;2023-07-13T15:53:52;23.90;99.90
20035;DHT22;10178;48.034;9.800;2023-07-13T15:56:25;24.30;99.90
20035;DHT22;10178;48.034;9.800;2023-07-13T15:58:52;24.20;99.90
20035;DHT22;10178;48.034;9.800;2023-07-13T16:01:18;24.30;99.90
20035;DHT22;10178;48.034;9.800;2023-07-13T16:03:47;24.60;99.90
20035;DHT22;10178;48.034;9.800;2023-07-13T16:06:22;24.40;99.90
20035;DHT22;10178;48.034;9.800;2023-07-13T16:08:51;24.80;99.90
20035;DHT22;10178;48.034;9.800;2023-07-13T16:11:24;24.80;99.90
20035;DHT22;10178;48.034;9.800;2023-07-13T16:13:51;25.10;99.90
20035;DHT22;10178;48.034;9.800;2023-07-13T16:16:23;25.30;99.90